sensor_id;sensor_type;location;lat;lon;timestamp;P1;durP1;ratioP1;P2;durP2;ratioP2
59424;SDS011;45231;44.826;20.312;2023-04-16T00:00:41;15.80;;;10.37;;
59424;SDS011;45231;44.826;20.312;2023-04-16T00:03:07;14.73;;;9.70;;
59424;SDS011;45231;44.826;20.312;2023-04-16T00:05:34;16.70;;;10.90;;
59424;SDS011;45231;44.826;20.312;2023-04-16T00:08:00;16.00;;;11.07;;
59424;SDS011;45231;44.826;20.312;2023-04-16T00:10:26;17.13;;;12.02;;
59424;SDS011;45231;44.826;20.312;2023-04-16T00:12:52;16.08;;;11.85;;
59424;SDS011;45231;44.826;20.312;2023-04-16T00:15:18;15.30;;;10.90;;
59424;SDS011;45231;44.826;20.312;2023-04-16T00:17:44;15.82;;;11.07;;
59424;SDS011;45231;44.826;20.312;2023-04-16T00:20:10;16.37;;;12.07;;
59424;SDS011;45231;44.826;20.312;2023-04-16T00:22:36;17.07;;;12.27;;
59424;SDS011;45231;44.826;20.312;2023-04-16T00:25:02;18.63;;;12.53;;
59424;SDS011;45231;44.826;20.312;2023-04-16T00:27:28;16.93;;;12.50;;
59424;SDS011;45231;44.826;20.312;2023-04-16T00:29:54;18.40;;;12.27;;
59424;SDS011;45231;44.826;20.312;2023-04-16T00:32:20;18.93;;;13.87;;
59424;SDS011;45231;44.826;20.312;2023-04-16T00:34:46;17.83;;;13.23;;
59424;SDS011;45231;44.826;20.312;2023-04-16T00:37:12;17.90;;;13.67;;
59424;SDS011;45231;44.826;20.312;2023-04-16T00:39:38;18.90;;;13.33;;
59424;SDS011;45231;44.826;20.312;2023-04-16T00:42:04;18.93;;;13.77;;
59424;SDS011;45231;44.826;20.312;2023-04-16T00:44:31;19.33;;;13.73;;
59424;SDS011;45231;44.826;20.312;2023-04-16T00:47:00;17.15;;;12.77;;
59424;SDS011;45231;44.826;20.312;2023-04-16T00:49:26;16.80;;;12.18;;
59424;SDS011;45231;44.826;20.312;2023-04-16T00:51:53;17.40;;;13.40;;
59424;SDS011;45231;44.826;20.312;2023-04-16T00:54:19;17.98;;;13.40;;
59424;SDS011;45231;44.826;20.312;2023-04-16T00:56:45;17.67;;;13.20;;
59424;SDS011;45231;44.826;20.312;2023-04-16T00:59:11;17.15;;;13.15;;
59424;SDS011;45231;44.826;20.312;2023-04-16T01:01:37;15.97;;;12.63;;
59424;SDS011;45231;44.826;20.312;2023-04-16T01:04:04;19.77;;;13.57;;
59424;SDS011;45231;44.826;20.312;2023-04-16T01:06:31;18.42;;;13.23;;
59424;SDS011;45231;44.826;20.312;2023-04-16T01:08:57;18.90;;;14.50;;
59424;SDS011;45231;44.826;20.312;2023-04-16T01:11:23;19.30;;;14.93;;
59424;SDS011;45231;44.826;20.312;2023-04-16T01:13:49;21.98;;;16.20;;
59424;SDS011;45231;44.826;20.312;2023-04-16T01:16:15;23.83;;;15.60;;
59424;SDS011;45231;44.826;20.312;2023-04-16T01:18:41;24.40;;;16.93;;
59424;SDS011;45231;44.826;20.312;2023-04-16T01:21:07;20.15;;;15.38;;
59424;SDS011;45231;44.826;20.312;2023-04-16T01:23:34;23.15;;;18.48;;
59424;SDS011;45231;44.826;20.312;2023-04-16T01:26:00;23.10;;;18.08;;
59424;SDS011;45231;44.826;20.312;2023-04-16T01:28:26;24.47;;;20.30;;
59424;SDS011;45231;44.826;20.312;2023-04-16T01:30:52;25.95;;;21.23;;
59424;SDS011;45231;44.826;20.312;2023-04-16T01:33:18;25.53;;;21.03;;
59424;SDS011;45231;44.826;20.312;2023-04-16T01:35:44;29.70;;;22.80;;
59424;SDS011;45231;44.826;20.312;2023-04-16T01:38:10;26.70;;;22.13;;
59424;SDS011;45231;44.826;20.312;2023-04-16T01:40:36;27.13;;;21.53;;
59424;SDS011;45231;44.826;20.312;2023-04-16T01:43:03;25.77;;;20.35;;
59424;SDS011;45231;44.826;20.312;2023-04-16T01:45:32;29.48;;;22.58;;
59424;SDS011;45231;44.826;20.312;2023-04-16T01:47:59;28.95;;;20.95;;
59424;SDS011;45231;44.826;20.312;2023-04-16T01:50:25;27.23;;;19.98;;
59424;SDS011;45231;44.826;20.312;2023-04-16T01:52:51;26.20;;;19.27;;
59424;SDS011;45231;44.826;20.312;2023-04-16T01:55:17;25.07;;;19.83;;
59424;SDS011;45231;44.826;20.312;2023-04-16T01:57:43;25.30;;;18.33;;
59424;SDS011;45231;44.826;20.312;2023-04-16T02:00:10;24.37;;;19.20;;
59424;SDS011;45231;44.826;20.312;2023-04-16T02:02:36;24.80;;;17.67;;
59424;SDS011;45231;44.826;20.312;2023-04-16T02:05:02;24.37;;;17.87;;
59424;SDS011;45231;44.826;20.312;2023-04-16T02:07:28;26.10;;;17.27;;
59424;SDS011;45231;44.826;20.312;2023-04-16T02:09:55;24.33;;;17.25;;
59424;SDS011;45231;44.826;20.312;2023-04-16T02:12:22;22.75;;;16.88;;
59424;SDS011;45231;44.826;20.312;2023-04-16T02:14:48;21.47;;;16.20;;
59424;SDS011;45231;44.826;20.312;2023-04-16T02:17:14;21.37;;;16.77;;
59424;SDS011;45231;44.826;20.312;2023-04-16T02:19:41;22.13;;;15.05;;
59424;SDS011;45231;44.826;20.312;2023-04-16T02:22:07;18.52;;;13.80;;
59424;SDS011;45231;44.826;20.312;2023-04-16T02:24:33;20.63;;;15.52;;
59424;SDS011;45231;44.826;20.312;2023-04-16T02:26:59;19.53;;;14.87;;
59424;SDS011;45231;44.826;20.312;2023-04-16T02:29:25;22.77;;;15.90;;
59424;SDS011;45231;44.826;20.312;2023-04-16T02:31:51;21.37;;;15.13;;
59424;SDS011;45231;44.826;20.312;2023-04-16T02:34:17;22.13;;;14.70;;
59424;SDS011;45231;44.826;20.312;2023-04-16T02:36:43;21.25;;;16.30;;
59424;SDS011;45231;44.826;20.312;2023-04-16T02:39:09;19.60;;;15.15;;
59424;SDS011;45231;44.826;20.312;2023-04-16T02:41:35;19.43;;;14.57;;
59424;SDS011;45231;44.826;20.312;2023-04-16T02:44:02;20.05;;;15.40;;
59424;SDS011;45231;44.826;20.312;2023-04-16T02:46:28;22.47;;;16.97;;
59424;SDS011;45231;44.826;20.312;2023-04-16T02:48:54;25.23;;;16.67;;
59424;SDS011;45231;44.826;20.312;2023-04-16T02:51:20;20.73;;;14.73;;
59424;SDS011;45231;44.826;20.312;2023-04-16T02:53:46;23.13;;;17.30;;
59424;SDS011;45231;44.826;20.312;2023-04-16T02:56:12;24.85;;;18.60;;
59424;SDS011;45231;44.826;20.312;2023-04-16T02:58:38;26.67;;;19.58;;
59424;SDS011;45231;44.826;20.312;2023-04-16T03:01:04;28.33;;;21.00;;
59424;SDS011;45231;44.826;20.312;2023-04-16T03:03:30;29.77;;;22.57;;
59424;SDS011;45231;44.826;20.312;2023-04-16T03:05:56;31.63;;;22.95;;
59424;SDS011;45231;44.826;20.312;2023-04-16T03:08:22;27.90;;;22.13;;
59424;SDS011;45231;44.826;20.312;2023-04-16T03:10:48;31.00;;;21.15;;
59424;SDS011;45231;44.826;20.312;2023-04-16T03:13:15;28.10;;;21.08;;
59424;SDS011;45231;44.826;20.312;2023-04-16T03:15:46;30.07;;;19.17;;
59424;SDS011;45231;44.826;20.312;2023-04-16T03:18:12;28.95;;;19.55;;
59424;SDS011;45231;44.826;20.312;2023-04-16T03:20:38;24.88;;;19.58;;
59424;SDS011;45231;44.826;20.312;2023-04-16T03:23:05;25.40;;;19.50;;
59424;SDS011;45231;44.826;20.312;2023-04-16T03:25:31;26.63;;;18.70;;
59424;SDS011;45231;44.826;20.312;2023-04-16T03:27:57;25.67;;;18.92;;
59424;SDS011;45231;44.826;20.312;2023-04-16T03:30:23;29.60;;;21.50;;
59424;SDS011;45231;44.826;20.312;2023-04-16T03:32:49;25.10;;;18.77;;
59424;SDS011;45231;44.826;20.312;2023-04-16T03:35:15;27.77;;;19.50;;
59424;SDS011;45231;44.826;20.312;2023-04-16T03:37:42;20.88;;;16.02;;
59424;SDS011;45231;44.826;20.312;2023-04-16T03:40:08;21.90;;;16.98;;
59424;SDS011;45231;44.826;20.312;2023-04-16T03:42:35;20.88;;;17.05;;
59424;SDS011;45231;44.826;20.312;2023-04-16T03:45:01;21.30;;;16.23;;
59424;SDS011;45231;44.826;20.312;2023-04-16T03:47:27;24.42;;;17.88;;
59424;SDS011;45231;44.826;20.312;2023-04-16T03:49:54;21.97;;;17.33;;
59424;SDS011;45231;44.826;20.312;2023-04-16T03:52:20;21.58;;;16.90;;
59424;SDS011;45231;44.826;20.312;2023-04-16T03:54:46;23.43;;;18.87;;
59424;SDS011;45231;44.826;20.312;2023-04-16T03:57:12;24.83;;;19.38;;
59424;SDS011;45231;44.826;20.312;2023-04-16T03:59:38;23.50;;;18.17;;
59424;SDS011;45231;44.826;20.312;2023-04-16T04:02:04;24.92;;;19.00;;
59424;SDS011;45231;44.826;20.312;2023-04-16T04:04:30;22.40;;;19.17;;
59424;SDS011;45231;44.826;20.312;2023-04-16T04:06:56;21.43;;;17.93;;
59424;SDS011;45231;44.826;20.312;2023-04-16T04:09:22;22.83;;;17.80;;
59424;SDS011;45231;44.826;20.312;2023-04-16T04:11:49;22.43;;;19.23;;
59424;SDS011;45231;44.826;20.312;2023-04-16T04:14:15;26.90;;;20.77;;
59424;SDS011;45231;44.826;20.312;2023-04-16T04:16:41;29.33;;;20.08;;
59424;SDS011;45231;44.826;20.312;2023-04-16T04:19:07;28.33;;;21.00;;
59424;SDS011;45231;44.826;20.312;2023-04-16T04:21:33;27.90;;;20.43;;
59424;SDS011;45231;44.826;20.312;2023-04-16T04:23:59;24.10;;;18.90;;
59424;SDS011;45231;44.826;20.312;2023-04-16T04:26:25;24.50;;;18.40;;
59424;SDS011;45231;44.826;20.312;2023-04-16T04:28:51;27.40;;;19.52;;
59424;SDS011;45231;44.826;20.312;2023-04-16T04:31:17;21.97;;;17.10;;
59424;SDS011;45231;44.826;20.312;2023-04-16T04:33:43;22.63;;;18.10;;
59424;SDS011;45231;44.826;20.312;2023-04-16T04:36:09;21.50;;;17.50;;
59424;SDS011;45231;44.826;20.312;2023-04-16T04:38:35;21.83;;;17.42;;
59424;SDS011;45231;44.826;20.312;2023-04-16T04:41:01;23.48;;;18.25;;
59424;SDS011;45231;44.826;20.312;2023-04-16T04:43:27;22.57;;;18.53;;
59424;SDS011;45231;44.826;20.312;2023-04-16T04:45:53;24.67;;;17.20;;
59424;SDS011;45231;44.826;20.312;2023-04-16T04:48:19;22.55;;;17.73;;
59424;SDS011;45231;44.826;20.312;2023-04-16T04:50:50;22.83;;;16.52;;
59424;SDS011;45231;44.826;20.312;2023-04-16T04:53:17;19.33;;;15.75;;
59424;SDS011;45231;44.826;20.312;2023-04-16T04:55:43;22.73;;;17.23;;
59424;SDS011;45231;44.826;20.312;2023-04-16T04:58:10;21.23;;;16.08;;
59424;SDS011;45231;44.826;20.312;2023-04-16T05:00:36;18.93;;;15.13;;
59424;SDS011;45231;44.826;20.312;2023-04-16T05:03:03;20.83;;;16.53;;
59424;SDS011;45231;44.826;20.312;2023-04-16T05:05:30;18.85;;;13.73;;
59424;SDS011;45231;44.826;20.312;2023-04-16T05:07:56;22.27;;;17.47;;
59424;SDS011;45231;44.826;20.312;2023-04-16T05:10:22;20.87;;;17.03;;
59424;SDS011;45231;44.826;20.312;2023-04-16T05:12:48;20.47;;;15.80;;
59424;SDS011;45231;44.826;20.312;2023-04-16T05:15:15;22.90;;;17.08;;
59424;SDS011;45231;44.826;20.312;2023-04-16T05:17:41;19.10;;;14.85;;
59424;SDS011;45231;44.826;20.312;2023-04-16T05:20:07;17.80;;;14.80;;
59424;SDS011;45231;44.826;20.312;2023-04-16T05:22:34;19.70;;;15.70;;
59424;SDS011;45231;44.826;20.312;2023-04-16T05:25:00;20.80;;;17.20;;
59424;SDS011;45231;44.826;20.312;2023-04-16T05:27:26;21.40;;;16.00;;
59424;SDS011;45231;44.826;20.312;2023-04-16T05:29:52;20.33;;;16.67;;
59424;SDS011;45231;44.826;20.312;2023-04-16T05:32:18;19.63;;;15.70;;
59424;SDS011;45231;44.826;20.312;2023-04-16T05:34:44;17.55;;;14.35;;
59424;SDS011;45231;44.826;20.312;2023-04-16T05:37:10;21.90;;;16.33;;
59424;SDS011;45231;44.826;20.312;2023-04-16T05:39:36;21.83;;;16.85;;
59424;SDS011;45231;44.826;20.312;2023-04-16T05:42:02;19.80;;;15.17;;
59424;SDS011;45231;44.826;20.312;2023-04-16T05:44:28;21.23;;;16.37;;
59424;SDS011;45231;44.826;20.312;2023-04-16T05:46:54;19.60;;;16.95;;
59424;SDS011;45231;44.826;20.312;2023-04-16T05:49:20;18.77;;;15.57;;
59424;SDS011;45231;44.826;20.312;2023-04-16T05:51:47;19.90;;;14.37;;
59424;SDS011;45231;44.826;20.312;2023-04-16T05:54:13;16.90;;;13.73;;
59424;SDS011;45231;44.826;20.312;2023-04-16T05:56:39;21.30;;;15.70;;
59424;SDS011;45231;44.826;20.312;2023-04-16T05:59:05;19.40;;;15.50;;
59424;SDS011;45231;44.826;20.312;2023-04-16T06:01:31;19.13;;;15.05;;
59424;SDS011;45231;44.826;20.312;2023-04-16T06:03:57;17.45;;;14.95;;
59424;SDS011;45231;44.826;20.312;2023-04-16T06:06:23;20.80;;;14.83;;
59424;SDS011;45231;44.826;20.312;2023-04-16T06:08:51;18.45;;;14.82;;
59424;SDS011;45231;44.826;20.312;2023-04-16T06:11:17;21.42;;;16.05;;
59424;SDS011;45231;44.826;20.312;2023-04-16T06:13:43;17.73;;;14.52;;
59424;SDS011;45231;44.826;20.312;2023-04-16T06:16:09;20.50;;;14.48;;
59424;SDS011;45231;44.826;20.312;2023-04-16T06:18:38;16.95;;;13.45;;
59424;SDS011;45231;44.826;20.312;2023-04-16T06:21:04;16.92;;;13.85;;
59424;SDS011;45231;44.826;20.312;2023-04-16T06:23:30;16.13;;;13.10;;
59424;SDS011;45231;44.826;20.312;2023-04-16T06:25:57;16.85;;;12.15;;
59424;SDS011;45231;44.826;20.312;2023-04-16T06:28:23;14.27;;;11.27;;
59424;SDS011;45231;44.826;20.312;2023-04-16T06:30:49;15.63;;;10.80;;
59424;SDS011;45231;44.826;20.312;2023-04-16T06:33:15;12.93;;;10.02;;
59424;SDS011;45231;44.826;20.312;2023-04-16T06:35:41;14.35;;;10.25;;
59424;SDS011;45231;44.826;20.312;2023-04-16T06:38:07;13.52;;;9.02;;
59424;SDS011;45231;44.826;20.312;2023-04-16T06:40:33;13.93;;;9.20;;
59424;SDS011;45231;44.826;20.312;2023-04-16T06:43:01;12.07;;;8.43;;
59424;SDS011;45231;44.826;20.312;2023-04-16T06:45:27;10.85;;;8.32;;
59424;SDS011;45231;44.826;20.312;2023-04-16T06:47:53;11.60;;;8.45;;
59424;SDS011;45231;44.826;20.312;2023-04-16T06:50:19;10.02;;;8.23;;
59424;SDS011;45231;44.826;20.312;2023-04-16T06:52:47;11.23;;;9.00;;
59424;SDS011;45231;44.826;20.312;2023-04-16T06:55:13;11.32;;;8.85;;
59424;SDS011;45231;44.826;20.312;2023-04-16T06:57:39;13.07;;;8.30;;
59424;SDS011;45231;44.826;20.312;2023-04-16T07:00:05;12.80;;;8.07;;
59424;SDS011;45231;44.826;20.312;2023-04-16T07:02:32;11.90;;;8.50;;
59424;SDS011;45231;44.826;20.312;2023-04-16T07:04:58;10.48;;;7.43;;
59424;SDS011;45231;44.826;20.312;2023-04-16T07:07:24;10.93;;;7.65;;
59424;SDS011;45231;44.826;20.312;2023-04-16T07:09:50;10.68;;;7.68;;
59424;SDS011;45231;44.826;20.312;2023-04-16T07:14:42;10.27;;;7.93;;
59424;SDS011;45231;44.826;20.312;2023-04-16T07:19:34;10.63;;;8.07;;
59424;SDS011;45231;44.826;20.312;2023-04-16T07:22:01;12.00;;;8.30;;
59424;SDS011;45231;44.826;20.312;2023-04-16T07:24:27;9.07;;;5.10;;
59424;SDS011;45231;44.826;20.312;2023-04-16T07:26:53;9.82;;;4.38;;
59424;SDS011;45231;44.826;20.312;2023-04-16T07:29:19;11.48;;;5.80;;
59424;SDS011;45231;44.826;20.312;2023-04-16T07:31:45;10.05;;;6.25;;
59424;SDS011;45231;44.826;20.312;2023-04-16T07:34:11;9.48;;;6.28;;
59424;SDS011;45231;44.826;20.312;2023-04-16T07:36:38;10.43;;;5.65;;
59424;SDS011;45231;44.826;20.312;2023-04-16T07:39:04;9.38;;;6.25;;
59424;SDS011;45231;44.826;20.312;2023-04-16T07:41:30;9.82;;;6.60;;
59424;SDS011;45231;44.826;20.312;2023-04-16T07:43:56;10.82;;;5.95;;
59424;SDS011;45231;44.826;20.312;2023-04-16T07:46:23;8.57;;;5.85;;
59424;SDS011;45231;44.826;20.312;2023-04-16T07:48:49;7.63;;;5.28;;
59424;SDS011;45231;44.826;20.312;2023-04-16T07:51:15;10.15;;;5.70;;
59424;SDS011;45231;44.826;20.312;2023-04-16T07:53:41;11.90;;;5.75;;
59424;SDS011;45231;44.826;20.312;2023-04-16T07:56:07;11.15;;;5.80;;
59424;SDS011;45231;44.826;20.312;2023-04-16T07:58:33;8.27;;;5.18;;
59424;SDS011;45231;44.826;20.312;2023-04-16T08:01:00;9.48;;;5.80;;
59424;SDS011;45231;44.826;20.312;2023-04-16T08:03:26;8.48;;;5.30;;
59424;SDS011;45231;44.826;20.312;2023-04-16T08:05:52;8.02;;;5.47;;
59424;SDS011;45231;44.826;20.312;2023-04-16T08:08:18;8.50;;;5.53;;
59424;SDS011;45231;44.826;20.312;2023-04-16T08:10:44;8.63;;;5.20;;
59424;SDS011;45231;44.826;20.312;2023-04-16T08:13:10;9.13;;;6.40;;
59424;SDS011;45231;44.826;20.312;2023-04-16T08:18:02;8.50;;;5.10;;
59424;SDS011;45231;44.826;20.312;2023-04-16T08:20:30;8.55;;;5.60;;
59424;SDS011;45231;44.826;20.312;2023-04-16T08:22:56;8.55;;;5.47;;
59424;SDS011;45231;44.826;20.312;2023-04-16T08:25:22;10.38;;;5.65;;
59424;SDS011;45231;44.826;20.312;2023-04-16T08:27:48;8.88;;;5.97;;
59424;SDS011;45231;44.826;20.312;2023-04-16T08:30:15;8.35;;;6.20;;
59424;SDS011;45231;44.826;20.312;2023-04-16T08:32:41;9.27;;;6.45;;
59424;SDS011;45231;44.826;20.312;2023-04-16T08:35:08;10.10;;;6.15;;
59424;SDS011;45231;44.826;20.312;2023-04-16T08:37:34;10.40;;;6.53;;
59424;SDS011;45231;44.826;20.312;2023-04-16T08:40:00;9.40;;;6.60;;
59424;SDS011;45231;44.826;20.312;2023-04-16T08:42:34;8.27;;;5.70;;
59424;SDS011;45231;44.826;20.312;2023-04-16T08:45:10;10.32;;;6.60;;
59424;SDS011;45231;44.826;20.312;2023-04-16T08:47:39;8.88;;;6.00;;
59424;SDS011;45231;44.826;20.312;2023-04-16T08:50:06;9.63;;;5.93;;
59424;SDS011;45231;44.826;20.312;2023-04-16T08:52:33;10.60;;;5.65;;
59424;SDS011;45231;44.826;20.312;2023-04-16T08:55:03;9.20;;;5.55;;
59424;SDS011;45231;44.826;20.312;2023-04-16T08:57:34;11.55;;;6.00;;
59424;SDS011;45231;44.826;20.312;2023-04-16T09:00:02;8.38;;;4.50;;
59424;SDS011;45231;44.826;20.312;2023-04-16T09:02:28;9.32;;;4.68;;
59424;SDS011;45231;44.826;20.312;2023-04-16T09:04:57;7.88;;;4.38;;
59424;SDS011;45231;44.826;20.312;2023-04-16T09:07:24;7.50;;;4.43;;
59424;SDS011;45231;44.826;20.312;2023-04-16T09:09:51;7.68;;;3.90;;
59424;SDS011;45231;44.826;20.312;2023-04-16T09:12:17;8.13;;;3.35;;
59424;SDS011;45231;44.826;20.312;2023-04-16T09:14:47;5.40;;;2.40;;
59424;SDS011;45231;44.826;20.312;2023-04-16T09:17:13;8.73;;;2.38;;
59424;SDS011;45231;44.826;20.312;2023-04-16T09:22:05;8.50;;;2.60;;
59424;SDS011;45231;44.826;20.312;2023-04-16T09:24:32;8.85;;;3.55;;
59424;SDS011;45231;44.826;20.312;2023-04-16T09:26:59;6.18;;;2.30;;
59424;SDS011;45231;44.826;20.312;2023-04-16T09:29:32;6.90;;;3.05;;
59424;SDS011;45231;44.826;20.312;2023-04-16T09:32:02;8.65;;;3.10;;
59424;SDS011;45231;44.826;20.312;2023-04-16T09:34:28;6.82;;;2.72;;
59424;SDS011;45231;44.826;20.312;2023-04-16T09:36:54;6.47;;;2.10;;
59424;SDS011;45231;44.826;20.312;2023-04-16T09:39:21;6.00;;;2.85;;
59424;SDS011;45231;44.826;20.312;2023-04-16T09:41:47;4.70;;;2.03;;
59424;SDS011;45231;44.826;20.312;2023-04-16T09:44:17;5.28;;;2.10;;
59424;SDS011;45231;44.826;20.312;2023-04-16T09:46:43;6.07;;;1.85;;
59424;SDS011;45231;44.826;20.312;2023-04-16T09:49:12;4.97;;;1.67;;
59424;SDS011;45231;44.826;20.312;2023-04-16T09:51:42;5.72;;;1.67;;
59424;SDS011;45231;44.826;20.312;2023-04-16T09:54:08;5.35;;;1.52;;
59424;SDS011;45231;44.826;20.312;2023-04-16T09:56:38;5.43;;;1.75;;
59424;SDS011;45231;44.826;20.312;2023-04-16T09:59:05;5.78;;;1.52;;
59424;SDS011;45231;44.826;20.312;2023-04-16T10:01:31;3.47;;;1.40;;
59424;SDS011;45231;44.826;20.312;2023-04-16T10:03:57;4.88;;;1.45;;
59424;SDS011;45231;44.826;20.312;2023-04-16T10:06:23;3.67;;;1.40;;
59424;SDS011;45231;44.826;20.312;2023-04-16T10:08:54;4.13;;;1.58;;
59424;SDS011;45231;44.826;20.312;2023-04-16T10:11:23;6.22;;;2.08;;
59424;SDS011;45231;44.826;20.312;2023-04-16T10:13:50;7.15;;;1.80;;
59424;SDS011;45231;44.826;20.312;2023-04-16T10:16:16;4.75;;;2.00;;
59424;SDS011;45231;44.826;20.312;2023-04-16T10:18:42;3.05;;;1.23;;
59424;SDS011;45231;44.826;20.312;2023-04-16T10:21:09;4.40;;;1.98;;
59424;SDS011;45231;44.826;20.312;2023-04-16T10:23:39;4.20;;;1.65;;
59424;SDS011;45231;44.826;20.312;2023-04-16T10:26:05;6.10;;;2.70;;
59424;SDS011;45231;44.826;20.312;2023-04-16T10:28:31;4.80;;;1.90;;
59424;SDS011;45231;44.826;20.312;2023-04-16T10:31:00;4.32;;;1.75;;
59424;SDS011;45231;44.826;20.312;2023-04-16T10:33:34;4.78;;;1.70;;
59424;SDS011;45231;44.826;20.312;2023-04-16T10:36:11;4.13;;;1.67;;
59424;SDS011;45231;44.826;20.312;2023-04-16T10:38:38;5.35;;;2.03;;
59424;SDS011;45231;44.826;20.312;2023-04-16T10:41:05;3.08;;;1.30;;
59424;SDS011;45231;44.826;20.312;2023-04-16T10:43:32;3.75;;;1.50;;
59424;SDS011;45231;44.826;20.312;2023-04-16T10:48:43;5.32;;;1.55;;
59424;SDS011;45231;44.826;20.312;2023-04-16T10:51:21;4.50;;;1.73;;
59424;SDS011;45231;44.826;20.312;2023-04-16T10:53:48;7.28;;;1.73;;
59424;SDS011;45231;44.826;20.312;2023-04-16T10:56:21;4.88;;;1.70;;
59424;SDS011;45231;44.826;20.312;2023-04-16T10:58:47;3.95;;;1.50;;
59424;SDS011;45231;44.826;20.312;2023-04-16T11:01:13;4.13;;;1.35;;
59424;SDS011;45231;44.826;20.312;2023-04-16T11:03:41;5.25;;;1.80;;
59424;SDS011;45231;44.826;20.312;2023-04-16T11:06:15;5.22;;;1.60;;
59424;SDS011;45231;44.826;20.312;2023-04-16T11:08:44;6.38;;;2.00;;
59424;SDS011;45231;44.826;20.312;2023-04-16T11:11:11;6.82;;;1.65;;
59424;SDS011;45231;44.826;20.312;2023-04-16T11:13:38;3.88;;;1.75;;
59424;SDS011;45231;44.826;20.312;2023-04-16T11:16:07;4.95;;;1.52;;
59424;SDS011;45231;44.826;20.312;2023-04-16T11:18:33;4.50;;;1.60;;
59424;SDS011;45231;44.826;20.312;2023-04-16T11:21:00;4.32;;;2.00;;
59424;SDS011;45231;44.826;20.312;2023-04-16T11:23:26;7.43;;;1.75;;
59424;SDS011;45231;44.826;20.312;2023-04-16T11:25:52;4.90;;;1.50;;
59424;SDS011;45231;44.826;20.312;2023-04-16T11:28:34;4.50;;;1.80;;
59424;SDS011;45231;44.826;20.312;2023-04-16T11:31:08;3.58;;;1.30;;
59424;SDS011;45231;44.826;20.312;2023-04-16T11:33:36;3.53;;;1.38;;
59424;SDS011;45231;44.826;20.312;2023-04-16T11:36:03;4.35;;;1.63;;
59424;SDS011;45231;44.826;20.312;2023-04-16T11:38:36;4.68;;;1.67;;
59424;SDS011;45231;44.826;20.312;2023-04-16T11:41:05;4.45;;;1.30;;
59424;SDS011;45231;44.826;20.312;2023-04-16T11:43:31;3.60;;;1.60;;
59424;SDS011;45231;44.826;20.312;2023-04-16T11:45:58;3.97;;;1.25;;
59424;SDS011;45231;44.826;20.312;2023-04-16T11:48:24;2.58;;;1.23;;
59424;SDS011;45231;44.826;20.312;2023-04-16T11:50:57;4.82;;;1.60;;
59424;SDS011;45231;44.826;20.312;2023-04-16T11:53:23;4.00;;;1.50;;
59424;SDS011;45231;44.826;20.312;2023-04-16T11:58:15;3.85;;;1.55;;
59424;SDS011;45231;44.826;20.312;2023-04-16T12:00:44;4.13;;;1.48;;
59424;SDS011;45231;44.826;20.312;2023-04-16T12:03:10;4.50;;;1.60;;
59424;SDS011;45231;44.826;20.312;2023-04-16T12:05:36;3.50;;;1.20;;
59424;SDS011;45231;44.826;20.312;2023-04-16T12:08:04;3.67;;;1.20;;
59424;SDS011;45231;44.826;20.312;2023-04-16T12:10:31;4.00;;;1.40;;
59424;SDS011;45231;44.826;20.312;2023-04-16T12:13:13;4.57;;;1.40;;
59424;SDS011;45231;44.826;20.312;2023-04-16T12:15:46;5.07;;;1.38;;
59424;SDS011;45231;44.826;20.312;2023-04-16T12:18:13;4.00;;;1.48;;
59424;SDS011;45231;44.826;20.312;2023-04-16T12:20:40;3.70;;;1.30;;
59424;SDS011;45231;44.826;20.312;2023-04-16T12:23:06;4.80;;;1.60;;
59424;SDS011;45231;44.826;20.312;2023-04-16T12:25:33;4.75;;;1.45;;
59424;SDS011;45231;44.826;20.312;2023-04-16T12:30:25;8.48;;;1.38;;
59424;SDS011;45231;44.826;20.312;2023-04-16T12:33:13;5.72;;;1.63;;
59424;SDS011;45231;44.826;20.312;2023-04-16T12:35:38;3.63;;;1.20;;
59424;SDS011;45231;44.826;20.312;2023-04-16T12:38:06;3.83;;;1.60;;
59424;SDS011;45231;44.826;20.312;2023-04-16T12:40:32;8.27;;;1.63;;
59424;SDS011;45231;44.826;20.312;2023-04-16T12:42:59;4.35;;;1.38;;
59424;SDS011;45231;44.826;20.312;2023-04-16T12:45:26;5.72;;;1.60;;
59424;SDS011;45231;44.826;20.312;2023-04-16T12:47:52;4.07;;;1.70;;
59424;SDS011;45231;44.826;20.312;2023-04-16T12:50:19;5.30;;;1.67;;
59424;SDS011;45231;44.826;20.312;2023-04-16T12:55:12;4.93;;;1.55;;
59424;SDS011;45231;44.826;20.312;2023-04-16T12:57:38;4.00;;;1.40;;
59424;SDS011;45231;44.826;20.312;2023-04-16T13:02:30;3.63;;;1.30;;
59424;SDS011;45231;44.826;20.312;2023-04-16T13:04:57;5.32;;;1.30;;
59424;SDS011;45231;44.826;20.312;2023-04-16T13:07:23;4.78;;;1.65;;
59424;SDS011;45231;44.826;20.312;2023-04-16T13:09:50;3.15;;;1.40;;
59424;SDS011;45231;44.826;20.312;2023-04-16T13:14:43;4.55;;;1.60;;
59424;SDS011;45231;44.826;20.312;2023-04-16T13:17:09;6.10;;;1.40;;
59424;SDS011;45231;44.826;20.312;2023-04-16T13:19:35;6.00;;;1.80;;
59424;SDS011;45231;44.826;20.312;2023-04-16T13:22:01;6.93;;;1.95;;
59424;SDS011;45231;44.826;20.312;2023-04-16T13:24:27;4.28;;;1.40;;
59424;SDS011;45231;44.826;20.312;2023-04-16T13:26:54;6.35;;;1.58;;
59424;SDS011;45231;44.826;20.312;2023-04-16T13:29:21;6.13;;;2.00;;
59424;SDS011;45231;44.826;20.312;2023-04-16T13:34:13;5.70;;;1.40;;
59424;SDS011;45231;44.826;20.312;2023-04-16T13:36:39;5.63;;;1.80;;
59424;SDS011;45231;44.826;20.312;2023-04-16T13:39:06;5.95;;;1.52;;
59424;SDS011;45231;44.826;20.312;2023-04-16T13:41:38;4.05;;;1.35;;
59424;SDS011;45231;44.826;20.312;2023-04-16T13:44:04;2.83;;;1.20;;
59424;SDS011;45231;44.826;20.312;2023-04-16T13:46:31;3.70;;;1.38;;
59424;SDS011;45231;44.826;20.312;2023-04-16T13:48:57;4.38;;;1.40;;
59424;SDS011;45231;44.826;20.312;2023-04-16T13:51:23;4.05;;;1.35;;
59424;SDS011;45231;44.826;20.312;2023-04-16T13:53:49;4.47;;;1.60;;
59424;SDS011;45231;44.826;20.312;2023-04-16T13:56:16;5.72;;;1.60;;
59424;SDS011;45231;44.826;20.312;2023-04-16T13:58:42;6.63;;;2.42;;
59424;SDS011;45231;44.826;20.312;2023-04-16T14:01:08;5.20;;;1.70;;
59424;SDS011;45231;44.826;20.312;2023-04-16T14:06:02;4.50;;;1.85;;
59424;SDS011;45231;44.826;20.312;2023-04-16T14:08:28;4.72;;;1.65;;
59424;SDS011;45231;44.826;20.312;2023-04-16T14:10:55;4.28;;;1.65;;
59424;SDS011;45231;44.826;20.312;2023-04-16T14:13:21;3.70;;;1.50;;
59424;SDS011;45231;44.826;20.312;2023-04-16T14:18:14;4.13;;;1.67;;
59424;SDS011;45231;44.826;20.312;2023-04-16T14:20:40;4.22;;;1.50;;
59424;SDS011;45231;44.826;20.312;2023-04-16T14:23:06;2.92;;;1.50;;
59424;SDS011;45231;44.826;20.312;2023-04-16T14:25:32;3.80;;;1.45;;
59424;SDS011;45231;44.826;20.312;2023-04-16T14:30:25;2.63;;;1.30;;
59424;SDS011;45231;44.826;20.312;2023-04-16T14:32:51;3.30;;;1.33;;
59424;SDS011;45231;44.826;20.312;2023-04-16T14:37:43;3.38;;;1.52;;
59424;SDS011;45231;44.826;20.312;2023-04-16T14:40:10;7.47;;;1.50;;
59424;SDS011;45231;44.826;20.312;2023-04-16T14:42:37;2.63;;;1.35;;
59424;SDS011;45231;44.826;20.312;2023-04-16T14:45:04;4.32;;;1.35;;
59424;SDS011;45231;44.826;20.312;2023-04-16T14:47:34;4.32;;;1.52;;
59424;SDS011;45231;44.826;20.312;2023-04-16T14:50:01;3.83;;;1.40;;
59424;SDS011;45231;44.826;20.312;2023-04-16T14:52:30;3.05;;;1.35;;
59424;SDS011;45231;44.826;20.312;2023-04-16T14:54:58;3.55;;;1.30;;